Time;durP1;ratioP1;P1;durP2;ratioP2;P2;SDS_P1;SDS_P2;PMS_P1;PMS_P2;Temp;Humidity;BMP_temperature;BMP_pressure;BME280_temperature;BME280_humidity;BME280_pressure;Samples;Min_cycle;Max_cycle;Signal;HPM_P1;HPM_P2
2022/02/14 00:02:00;;;;;;;10.47;3.60;;;10.40;74.60;;;;;;5075773;28;20940;-70
2022/02/14 00:04:28;;;;;;;7.90;2.60;;;10.50;74.90;;;;;;5076652;28;20773;-69
2022/02/14 00:06:55;;;;;;;6.00;3.70;;;10.40;74.70;;;;;;5074965;28;20460;-70
2022/02/14 00:09:22;;;;;;;13.03;4.00;;;10.40;75.10;;;;;;5075833;28;20476;-70
2022/02/14 00:11:48;;;;;;;9.93;4.07;;;10.40;75.30;;;;;;5076039;28;20515;-70
2022/02/14 00:14:15;;;;;;;10.27;4.00;;;10.40;75.20;;;;;;5075959;28;20437;-69
2022/02/14 00:16:42;;;;;;;7.80;3.00;;;10.30;75.40;;;;;;5075800;28;20468;-69
2022/02/14 00:19:09;;;;;;;6.07;3.40;;;10.40;75.70;;;;;;5075517;28;20441;-70
2022/02/14 00:21:38;;;;;;;7.00;3.50;;;10.30;75.70;;;;;;5075843;28;20474;-70
2022/02/14 00:24:06;;;;;;;6.77;3.53;;;10.30;75.90;;;;;;5075694;28;20441;-70
2022/02/14 00:26:33;;;;;;;5.87;3.00;;;10.30;76.30;;;;;;5075381;28;20472;-69
2022/02/14 00:29:00;;;;;;;4.10;2.80;;;10.30;76.60;;;;;;5075560;28;20449;-70
2022/02/14 00:31:27;;;;;;;8.63;3.53;;;10.20;76.80;;;;;;5075561;28;20451;-70
2022/02/14 00:33:53;;;;;;;6.20;3.47;;;10.30;77.10;;;;;;5075238;28;20828;-70
2022/02/14 00:36:20;;;;;;;7.93;3.30;;;10.20;77.00;;;;;;5075500;28;20468;-70
2022/02/14 00:38:48;;;;;;;6.67;3.27;;;10.20;77.30;;;;;;5075388;28;20449;-70
2022/02/14 00:41:15;;;;;;;10.53;3.60;;;10.20;77.60;;;;;;5075304;28;20455;-70
2022/02/14 00:43:42;;;;;;;8.10;3.00;;;10.20;77.70;;;;;;5075291;28;20440;-70
2022/02/14 00:46:09;;;;;;;9.40;4.00;;;10.20;77.70;;;;;;5075233;28;20461;-70
2022/02/14 00:48:35;;;;;;;6.20;3.60;;;10.30;77.70;;;;;;5075256;28;20449;-70
2022/02/14 00:51:02;;;;;;;5.10;3.07;;;10.30;77.90;;;;;;5075239;28;20495;-70
2022/02/14 00:53:29;;;;;;;5.00;3.00;;;10.30;77.90;;;;;;5075202;28;20448;-70
2022/02/14 00:55:57;;;;;;;7.73;3.50;;;10.30;77.90;;;;;;5074684;28;20998;-70
2022/02/14 00:58:24;;;;;;;3.50;2.90;;;10.30;78.10;;;;;;5074922;28;20441;-70
2022/02/14 01:00:51;;;;;;;5.00;3.10;;;10.30;78.10;;;;;;5074988;28;20445;-70
2022/02/14 01:03:17;;;;;;;5.77;3.30;;;10.30;78.40;;;;;;5074960;28;20455;-70
2022/02/14 01:05:44;;;;;;;7.13;3.40;;;10.20;78.40;;;;;;5074806;28;20461;-70
2022/02/14 01:08:11;;;;;;;6.43;3.20;;;10.30;78.80;;;;;;5074267;28;21005;-70
2022/02/14 01:10:38;;;;;;;4.60;3.03;;;10.20;78.80;;;;;;5074653;28;20480;-70
2022/02/14 01:13:06;;;;;;;7.70;3.27;;;10.30;79.10;;;;;;5074448;28;20456;-70
2022/02/14 01:15:33;;;;;;;7.40;2.77;;;10.30;79.20;;;;;;5074554;28;20470;-70
2022/02/14 01:18:00;;;;;;;6.13;3.00;;;10.30;79.30;;;;;;5074330;28;20440;-69
2022/02/14 01:20:26;;;;;;;5.97;3.00;;;10.30;79.30;;;;;;5074627;28;20852;-70
2022/02/14 01:22:53;;;;;;;4.20;2.70;;;10.30;79.20;;;;;;5074519;28;20452;-70
2022/02/14 01:25:20;;;;;;;5.50;2.93;;;10.40;79.40;;;;;;5074406;28;20464;-70
2022/02/14 01:27:47;;;;;;;7.47;3.57;;;10.30;79.30;;;;;;5075201;28;20838;-70
2022/02/14 01:30:15;;;;;;;6.33;2.90;;;10.30;79.40;;;;;;5074350;28;20491;-70
2022/02/14 01:32:42;;;;;;;6.00;3.00;;;10.30;79.40;;;;;;5074349;28;20449;-70
2022/02/14 01:35:09;;;;;;;6.13;2.63;;;10.40;79.40;;;;;;5074247;28;20472;-69
2022/02/14 01:37:39;;;;;;;6.33;3.10;;;10.40;79.40;;;;;;5074231;28;20811;-69
2022/02/14 01:40:07;;;;;;;12.30;2.83;;;10.40;79.40;;;;;;5074158;28;20441;-69
2022/02/14 01:42:34;;;;;;;3.27;2.70;;;10.40;79.30;;;;;;5073759;28;20943;-69
2022/02/14 01:45:00;;;;;;;3.47;2.67;;;10.40;79.40;;;;;;5073971;28;20923;-69
2022/02/14 01:47:28;;;;;;;6.40;2.77;;;10.40;79.30;;;;;;5073936;28;20445;-69
2022/02/14 01:49:55;;;;;;;5.83;2.87;;;10.40;79.30;;;;;;5073928;28;20480;-70
2022/02/14 01:52:23;;;;;;;7.20;2.77;;;10.40;79.20;;;;;;5073889;28;20444;-70
2022/02/14 01:54:51;;;;;;;3.60;2.57;;;10.40;79.10;;;;;;5073888;28;20464;-70
2022/02/14 01:57:19;;;;;;;4.60;2.53;;;10.50;79.30;;;;;;5073901;28;20429;-69
2022/02/14 01:59:47;;;;;;;4.83;3.20;;;10.50;79.20;;;;;;5073788;28;20440;-70
2022/02/14 02:02:14;;;;;;;6.23;2.37;;;10.50;79.30;;;;;;5073751;28;20451;-70
2022/02/14 02:04:44;;;;;;;6.87;2.20;;;10.40;79.10;;;;;;5073623;28;20448;-69
2022/02/14 02:07:11;;;;;;;3.87;2.37;;;10.40;79.00;;;;;;5073435;28;20456;-70
2022/02/14 02:09:38;;;;;;;4.93;2.60;;;10.40;78.90;;;;;;5073277;28;20959;-70
2022/02/14 02:12:23;;;;;;;5.37;3.17;;;10.40;78.90;;;;;;5073724;28;20455;-70
2022/02/14 02:14:51;;;;;;;11.70;4.20;;;10.50;78.90;;;;;;5073641;28;20487;-69
2022/02/14 02:17:17;;;;;;;4.30;2.63;;;10.50;78.50;;;;;;5073553;28;20453;-70
2022/02/14 02:19:45;;;;;;;8.03;2.83;;;10.50;78.30;;;;;;5073244;28;20948;-70
2022/02/14 02:22:12;;;;;;;4.70;2.67;;;10.50;78.30;;;;;;5073701;28;20457;-70
2022/02/14 02:24:46;;;;;;;5.53;2.77;;;10.60;78.40;;;;;;5073437;28;20451;-69
2022/02/14 02:27:13;;;;;;;7.70;3.03;;;10.60;78.30;;;;;;5073597;28;20433;-69
2022/02/14 02:29:40;;;;;;;3.10;2.37;;;10.60;78.20;;;;;;5072369;28;20444;-69
2022/02/14 02:32:08;;;;;;;3.10;2.80;;;10.60;78.10;;;;;;5073500;28;20451;-70
2022/02/14 02:34:38;;;;;;;3.60;2.27;;;10.60;77.80;;;;;;5073317;28;20815;-70
2022/02/14 02:37:05;;;;;;;8.50;2.83;;;10.60;77.80;;;;;;5073378;28;20448;-70
2022/02/14 02:39:32;;;;;;;4.23;2.37;;;10.60;77.90;;;;;;5073368;28;20457;-70
2022/02/14 02:42:02;;;;;;;5.97;2.53;;;10.60;77.60;;;;;;5073443;28;20441;-70
2022/02/14 02:44:29;;;;;;;5.03;2.80;;;10.60;77.60;;;;;;5073421;28;20574;-69
2022/02/14 02:46:56;;;;;;;6.97;2.83;;;10.60;77.70;;;;;;5073378;28;20449;-70
2022/02/14 02:49:24;;;;;;;3.00;2.60;;;10.60;77.80;;;;;;5073372;28;20498;-70
2022/02/14 02:51:52;;;;;;;5.07;2.70;;;10.60;77.80;;;;;;5073641;28;20484;-70
2022/02/14 02:54:20;;;;;;;5.87;3.00;;;10.60;78.00;;;;;;5073323;28;20483;-70
2022/02/14 02:56:48;;;;;;;3.53;2.07;;;10.60;78.10;;;;;;5073262;28;20476;-70
2022/02/14 02:59:17;;;;;;;5.03;3.07;;;10.60;77.80;;;;;;5073200;28;20451;-70
2022/02/14 03:01:44;;;;;;;10.23;4.00;;;10.60;77.90;;;;;;5073172;28;20433;-70
2022/02/14 03:04:14;;;;;;;4.30;2.30;;;10.60;77.90;;;;;;5073131;28;20452;-70
2022/02/14 03:06:41;;;;;;;5.50;2.87;;;10.60;78.00;;;;;;5072936;28;20473;-70
2022/02/14 03:09:09;;;;;;;5.03;2.80;;;10.60;78.20;;;;;;5073179;28;20440;-70
2022/02/14 03:11:37;;;;;;;4.10;2.90;;;10.60;78.30;;;;;;5072964;28;20480;-70
2022/02/14 03:14:05;;;;;;;4.50;3.00;;;10.60;78.40;;;;;;5073088;28;20541;-69
2022/02/14 03:16:33;;;;;;;5.87;3.00;;;10.60;79.20;;;;;;5072984;28;20475;-69
2022/02/14 03:19:00;;;;;;;4.53;2.87;;;10.60;78.30;;;;;;5072986;28;20444;-69
2022/02/14 03:21:26;;;;;;;4.63;2.60;;;10.50;78.40;;;;;;5072934;28;20447;-70
2022/02/14 03:23:54;;;;;;;6.43;2.90;;;10.60;78.70;;;;;;5072953;28;20792;-70
2022/02/14 03:26:22;;;;;;;6.70;3.20;;;10.60;78.90;;;;;;5072856;28;20460;-70
2022/02/14 03:28:51;;;;;;;5.80;3.00;;;10.50;78.70;;;;;;5072572;28;20847;-70
2022/02/14 03:31:18;;;;;;;8.30;3.37;;;10.50;79.10;;;;;;5072646;28;20488;-70
2022/02/14 03:33:47;;;;;;;4.20;2.50;;;10.50;79.20;;;;;;5072584;28;20936;-70
2022/02/14 03:36:16;;;;;;;3.93;2.40;;;10.50;79.30;;;;;;5072786;28;20830;-70
2022/02/14 03:38:43;;;;;;;3.37;2.87;;;10.50;79.10;;;;;;5072820;28;20447;-70
2022/02/14 03:41:10;;;;;;;4.70;3.00;;;10.40;79.00;;;;;;5075904;28;20472;-69
2022/02/14 03:43:37;;;;;;;3.80;2.57;;;10.50;79.40;;;;;;5076448;28;20460;-70
2022/02/14 03:46:04;;;;;;;6.47;2.73;;;10.40;79.50;;;;;;5076402;28;20464;-69
2022/02/14 03:48:31;;;;;;;5.63;3.57;;;10.40;79.40;;;;;;5076371;28;20457;-69
2022/02/14 03:51:00;;;;;;;4.93;2.47;;;10.40;79.30;;;;;;5076049;28;20547;-70
2022/02/14 03:53:27;;;;;;;3.20;2.00;;;10.50;79.50;;;;;;5076279;28;20452;-70
2022/02/14 03:55:54;;;;;;;3.27;3.03;;;10.40;79.50;;;;;;5076240;28;20464;-70
2022/02/14 03:58:21;;;;;;;4.57;2.80;;;10.40;79.70;;;;;;5076367;28;20440;-70
2022/02/14 04:00:47;;;;;;;5.50;2.40;;;10.40;79.70;;;;;;5076207;28;20436;-70
2022/02/14 04:03:14;;;;;;;4.30;2.13;;;10.40;79.70;;;;;;5075798;28;20449;-70
2022/02/14 04:05:41;;;;;;;3.13;2.40;;;10.30;79.90;;;;;;5076148;28;20467;-70
2022/02/14 04:08:09;;;;;;;5.70;2.53;;;10.30;79.90;;;;;;5075700;28;20464;-70
2022/02/14 04:10:36;;;;;;;3.13;1.83;;;10.40;80.10;;;;;;5076017;28;20484;-70
2022/02/14 04:13:03;;;;;;;8.20;3.17;;;10.40;80.20;;;;;;5076001;28;20473;-69
2022/02/14 04:15:29;;;;;;;4.03;2.80;;;10.40;80.10;;;;;;5075515;28;20471;-70
2022/02/14 04:17:57;;;;;;;3.27;2.80;;;10.40;80.20;;;;;;5076052;28;20451;-70
2022/02/14 04:20:24;;;;;;;3.80;2.07;;;10.30;80.20;;;;;;5075929;28;20452;-70
2022/02/14 04:22:51;;;;;;;4.30;2.13;;;10.30;80.70;;;;;;5075511;28;20452;-70
2022/02/14 04:25:19;;;;;;;4.40;2.60;;;10.30;81.00;;;;;;5076708;28;20468;-70
2022/02/14 04:27:46;;;;;;;4.87;2.10;;;10.30;81.10;;;;;;5075590;28;20520;-70
2022/02/14 04:30:14;;;;;;;5.10;2.90;;;10.30;81.20;;;;;;5075683;28;20449;-69
2022/02/14 04:32:41;;;;;;;4.17;2.40;;;10.30;81.40;;;;;;5075630;28;20460;-69
2022/02/14 04:35:08;;;;;;;3.30;2.93;;;10.30;81.50;;;;;;5075458;28;20465;-69
2022/02/14 04:37:35;;;;;;;3.63;2.53;;;10.30;81.50;;;;;;5075280;28;20433;-69
2022/02/14 04:40:03;;;;;;;6.23;2.40;;;10.20;81.50;;;;;;5075170;28;20445;-69
2022/02/14 04:42:31;;;;;;;3.73;2.20;;;10.20;81.60;;;;;;5075232;28;20799;-70
2022/02/14 04:44:58;;;;;;;5.30;3.70;;;10.20;81.90;;;;;;5075263;28;20464;-69
2022/02/14 04:47:24;;;;;;;3.83;2.17;;;10.20;81.70;;;;;;5075712;28;20447;-69
2022/02/14 04:49:51;;;;;;;2.47;2.27;;;10.20;81.70;;;;;;5075336;28;20448;-69
2022/02/14 04:52:18;;;;;;;4.37;2.70;;;10.20;81.80;;;;;;5074536;28;20476;-70
2022/02/14 04:54:45;;;;;;;5.13;2.70;;;10.20;81.90;;;;;;5075063;28;20462;-69
2022/02/14 04:57:12;;;;;;;3.53;2.70;;;10.20;82.30;;;;;;5075018;28;20441;-69
2022/02/14 04:59:40;;;;;;;5.70;2.60;;;10.20;82.50;;;;;;5075033;28;20809;-70
2022/02/14 05:02:07;;;;;;;5.10;2.20;;;10.20;82.50;;;;;;5074949;28;20473;-70
2022/02/14 05:04:33;;;;;;;6.77;2.97;;;10.20;82.60;;;;;;5074492;28;20443;-70
2022/02/14 05:07:00;;;;;;;6.30;2.17;;;10.30;82.60;;;;;;5074700;28;20452;-71
2022/02/14 05:09:27;;;;;;;5.70;2.40;;;10.20;82.70;;;;;;5074857;28;20464;-70
2022/02/14 05:11:54;;;;;;;4.47;1.80;;;10.30;83.00;;;;;;5074728;28;20469;-71
2022/02/14 05:14:21;;;;;;;2.73;1.70;;;10.30;83.00;;;;;;5074693;28;20429;-71
2022/02/14 05:16:49;;;;;;;3.50;2.37;;;10.30;83.40;;;;;;5074566;28;20472;-71
2022/02/14 05:19:16;;;;;;;3.17;2.40;;;10.40;83.50;;;;;;5074605;28;20445;-71
2022/02/14 05:21:43;;;;;;;4.10;2.20;;;10.50;83.70;;;;;;5074289;28;20958;-71
2022/02/14 05:24:09;;;;;;;4.00;1.70;;;10.50;84.50;;;;;;5075282;28;20526;-69
2022/02/14 05:26:36;;;;;;;3.80;1.90;;;10.60;83.80;;;;;;5074131;28;20472;-69
2022/02/14 05:29:03;;;;;;;5.93;2.07;;;10.60;83.50;;;;;;5074446;28;20453;-70
2022/02/14 05:31:30;;;;;;;10.93;2.67;;;10.70;83.40;;;;;;5074303;28;20480;-70
2022/02/14 05:33:59;;;;;;;6.43;2.10;;;10.80;83.30;;;;;;5074373;28;20936;-70
2022/02/14 05:36:26;;;;;;;7.40;2.40;;;10.80;83.50;;;;;;5074224;28;20502;-70
2022/02/14 05:38:54;;;;;;;3.53;1.63;;;10.90;84.00;;;;;;5074233;28;20456;-70
2022/02/14 05:41:21;;;;;;;9.20;2.77;;;10.90;84.10;;;;;;5074177;28;20437;-70
2022/02/14 05:43:49;;;;;;;4.50;2.20;;;11.00;84.20;;;;;;5073792;28;20940;-70
2022/02/14 05:46:15;;;;;;;3.70;1.43;;;11.00;84.20;;;;;;5073661;28;20477;-70
2022/02/14 05:48:43;;;;;;;2.90;1.90;;;11.00;84.10;;;;;;5074091;28;20449;-70
2022/02/14 05:51:13;;;;;;;4.57;2.67;;;11.00;84.10;;;;;;5073964;28;20476;-70
2022/02/14 05:53:40;;;;;;;4.70;2.00;;;11.10;84.00;;;;;;5073999;28;20448;-70
2022/02/14 05:56:08;;;;;;;3.43;2.00;;;11.10;83.90;;;;;;5073824;28;20509;-70
2022/02/14 05:58:35;;;;;;;3.63;1.77;;;11.10;83.80;;;;;;5073792;28;20449;-70
2022/02/14 06:01:02;;;;;;;3.73;1.90;;;11.10;84.00;;;;;;5073833;28;20820;-70
2022/02/14 06:03:29;;;;;;;2.60;1.60;;;11.10;83.90;;;;;;5072752;28;20461;-70
2022/02/14 06:05:55;;;;;;;3.67;1.57;;;11.10;84.00;;;;;;5073859;28;20452;-70
2022/02/14 06:08:23;;;;;;;5.10;2.67;;;11.10;84.10;;;;;;5073433;28;20467;-70
2022/02/14 06:10:50;;;;;;;3.47;1.87;;;11.10;84.20;;;;;;5073691;28;20467;-70
2022/02/14 06:13:17;;;;;;;4.33;1.93;;;11.10;84.20;;;;;;5073696;28;20441;-71
2022/02/14 06:15:44;;;;;;;2.67;2.10;;;11.10;84.40;;;;;;5073514;28;20476;-71
2022/02/14 06:18:11;;;;;;;3.00;1.30;;;11.10;84.60;;;;;;5073629;28;20440;-70
2022/02/14 06:20:38;;;;;;;2.17;1.60;;;11.10;84.80;;;;;;5073728;28;20457;-70
2022/02/14 06:23:05;;;;;;;2.40;1.57;;;11.10;85.30;;;;;;5073795;28;20441;-70
2022/02/14 06:25:33;;;;;;;3.67;1.83;;;11.00;85.60;;;;;;5073636;28;20464;-70
2022/02/14 06:28:01;;;;;;;3.33;1.73;;;11.00;85.80;;;;;;5073798;28;20455;-71
2022/02/14 06:30:27;;;;;;;2.83;1.50;;;11.10;85.80;;;;;;5073735;28;20562;-70
2022/02/14 06:32:54;;;;;;;1.83;1.50;;;11.10;85.90;;;;;;5073620;28;20485;-70
2022/02/14 06:35:22;;;;;;;1.57;1.47;;;11.00;86.10;;;;;;5073492;28;20464;-70
2022/02/14 06:37:48;;;;;;;4.20;1.50;;;11.00;86.30;;;;;;5073516;28;20448;-71
2022/02/14 06:40:15;;;;;;;1.77;1.40;;;11.00;86.50;;;;;;5073160;28;20444;-70
2022/02/14 06:42:47;;;;;;;3.80;1.77;;;11.00;86.60;;;;;;5073295;28;20437;-70
2022/02/14 06:45:14;;;;;;;2.77;1.13;;;11.00;86.70;;;;;;5073333;28;20469;-70
2022/02/14 06:47:41;;;;;;;2.00;1.20;;;11.10;86.80;;;;;;5072949;28;20825;-70
2022/02/14 06:50:09;;;;;;;1.33;1.03;;;11.10;86.70;;;;;;5073002;28;20966;-70
2022/02/14 06:52:36;;;;;;;1.60;1.50;;;11.10;86.80;;;;;;5072875;28;20891;-70
2022/02/14 06:55:03;;;;;;;2.43;1.70;;;11.10;86.90;;;;;;5073132;28;20468;-70
2022/02/14 06:57:31;;;;;;;3.00;1.40;;;11.10;87.10;;;;;;5073176;28;20447;-70
2022/02/14 07:00:00;;;;;;;1.73;1.23;;;11.20;87.20;;;;;;5073158;28;20448;-70
2022/02/14 07:02:27;;;;;;;1.70;1.27;;;11.20;87.10;;;;;;5073148;28;20444;-70
2022/02/14 07:04:53;;;;;;;3.77;1.30;;;11.20;87.30;;;;;;5073079;28;20460;-70
2022/02/14 07:07:20;;;;;;;2.77;1.30;;;11.20;87.70;;;;;;5072797;28;20464;-70
2022/02/14 07:09:47;;;;;;;1.00;0.90;;;11.20;87.80;;;;;;5073089;28;20791;-71
2022/02/14 07:12:14;;;;;;;2.50;1.10;;;11.30;87.90;;;;;;5072997;28;20472;-70
2022/02/14 07:14:41;;;;;;;2.10;1.10;;;11.40;88.30;;;;;;5073931;28;20452;-70
2022/02/14 07:17:11;;;;;;;3.37;1.40;;;11.40;88.30;;;;;;5077001;28;20448;-70
2022/02/14 07:19:38;;;;;;;3.20;1.30;;;11.40;88.30;;;;;;5076930;28;20433;-71
2022/02/14 07:22:05;;;;;;;4.00;1.13;;;11.50;88.60;;;;;;5076831;28;20451;-70
2022/02/14 07:24:32;;;;;;;6.63;1.50;;;11.50;88.70;;;;;;5076671;28;20444;-69
2022/02/14 07:26:59;;;;;;;5.30;1.30;;;11.60;88.50;;;;;;5076391;28;20812;-70
2022/02/14 07:29:26;;;;;;;7.90;1.37;;;11.60;88.70;;;;;;5076674;28;20448;-70
2022/02/14 07:31:52;;;;;;;4.27;1.23;;;11.60;88.40;;;;;;5076238;28;21003;-70
2022/02/14 07:34:22;;;;;;;1.77;1.10;;;11.70;88.70;;;;;;5076322;28;20433;-70
2022/02/14 07:36:49;;;;;;;2.17;1.20;;;11.70;88.60;;;;;;5076440;28;20475;-70
2022/02/14 07:39:16;;;;;;;3.17;1.73;;;11.80;88.50;;;;;;5076117;28;20940;-70
2022/02/14 07:41:43;;;;;;;2.00;1.57;;;11.80;88.30;;;;;;5077261;28;20490;-70
2022/02/14 07:44:10;;;;;;;4.13;1.07;;;11.80;88.50;;;;;;5076464;28;20460;-70
2022/02/14 07:46:37;;;;;;;3.30;1.67;;;11.80;88.50;;;;;;5075993;28;20998;-70
2022/02/14 07:49:03;;;;;;;4.03;2.10;;;11.90;89.50;;;;;;5076309;28;20958;-70
2022/02/14 07:51:31;;;;;;;2.13;1.90;;;11.90;88.90;;;;;;5076179;28;20452;-70
2022/02/14 07:53:58;;;;;;;2.70;1.50;;;11.90;88.80;;;;;;5076488;28;20821;-70
2022/02/14 07:56:25;;;;;;;2.40;1.40;;;11.90;89.00;;;;;;5076213;28;20468;-70
2022/02/14 07:58:52;;;;;;;3.30;1.33;;;11.90;89.30;;;;;;5076246;28;20476;-70
2022/02/14 08:01:19;;;;;;;2.70;1.10;;;12.00;89.60;;;;;;5076062;28;20536;-70
2022/02/14 08:03:45;;;;;;;1.63;1.53;;;11.90;90.00;;;;;;5076048;28;20449;-70
2022/02/14 08:06:12;;;;;;;2.83;1.53;;;11.90;89.80;;;;;;5075957;28;20461;-70
2022/02/14 08:08:40;;;;;;;3.17;1.50;;;12.00;90.00;;;;;;5075953;28;20448;-70
2022/02/14 08:11:07;;;;;;;2.60;1.17;;;12.00;89.70;;;;;;5075916;28;20542;-70
2022/02/14 08:13:34;;;;;;;2.70;1.57;;;12.00;90.00;;;;;;5075753;28;20476;-70
2022/02/14 08:16:01;;;;;;;3.60;1.27;;;12.00;89.60;;;;;;5075467;28;20468;-70
2022/02/14 08:18:28;;;;;;;2.07;1.40;;;12.10;89.90;;;;;;5075821;28;20456;-70
2022/02/14 08:20:54;;;;;;;3.50;1.50;;;12.20;89.80;;;;;;5075708;28;20453;-70
2022/02/14 08:23:21;;;;;;;3.17;1.60;;;12.20;89.80;;;;;;5075759;28;20448;-71
2022/02/14 08:25:49;;;;;;;2.93;1.13;;;12.20;89.80;;;;;;5075522;28;20469;-71
2022/02/14 08:28:17;;;;;;;2.47;1.27;;;12.30;89.80;;;;;;5075198;28;20453;-71
2022/02/14 08:30:44;;;;;;;1.50;1.40;;;12.40;89.80;;;;;;5075531;28;20448;-70
2022/02/14 08:33:12;;;;;;;4.93;2.13;;;12.40;89.80;;;;;;5075059;28;21002;-70
2022/02/14 08:35:39;;;;;;;3.83;1.43;;;12.50;89.50;;;;;;5075383;28;20874;-70
2022/02/14 08:38:06;;;;;;;2.70;1.10;;;12.50;89.30;;;;;;5075935;28;20551;-70
2022/02/14 08:40:33;;;;;;;1.10;1.00;;;12.60;89.00;;;;;;5075308;28;20803;-70
2022/02/14 08:43:01;;;;;;;2.70;1.40;;;12.70;88.80;;;;;;5075420;28;20433;-70
2022/02/14 08:45:28;;;;;;;3.93;1.47;;;12.70;88.70;;;;;;5074977;28;21048;-70
2022/02/14 08:47:55;;;;;;;2.10;1.37;;;12.70;89.00;;;;;;5075198;28;20468;-70
2022/02/14 08:50:22;;;;;;;3.63;1.20;;;12.80;89.00;;;;;;5075215;28;20429;-70
2022/02/14 08:52:49;;;;;;;3.50;1.50;;;12.80;88.70;;;;;;5075069;28;20503;-70
2022/02/14 08:55:17;;;;;;;2.60;1.30;;;12.80;88.90;;;;;;5075010;28;20476;-70
2022/02/14 08:57:44;;;;;;;1.93;0.87;;;12.90;88.10;;;;;;5075025;28;20476;-70
2022/02/14 09:00:13;;;;;;;1.50;1.00;;;12.90;88.50;;;;;;5074950;28;20804;-70
2022/02/14 09:02:40;;;;;;;1.43;0.90;;;12.90;88.80;;;;;;5074930;28;20432;-70
2022/02/14 09:05:08;;;;;;;4.70;1.43;;;13.00;88.50;;;;;;5074901;28;20487;-70
2022/02/14 09:07:34;;;;;;;2.80;1.27;;;13.00;88.40;;;;;;5074450;28;20453;-70
2022/02/14 09:10:01;;;;;;;3.97;1.00;;;12.90;88.60;;;;;;5074841;28;20429;-70
2022/02/14 09:12:28;;;;;;;7.17;1.40;;;12.90;89.10;;;;;;5074630;28;20888;-70
2022/02/14 09:14:56;;;;;;;6.57;1.63;;;12.90;89.50;;;;;;5074314;28;20461;-70
2022/02/14 09:17:25;;;;;;;2.37;1.20;;;12.80;89.80;;;;;;5074642;28;20457;-70
2022/02/14 09:19:52;;;;;;;5.17;1.37;;;12.80;89.50;;;;;;5074550;28;20455;-71
2022/02/14 09:22:19;;;;;;;14.50;2.60;;;12.80;90.10;;;;;;5074531;28;20445;-70
2022/02/14 09:24:46;;;;;;;14.10;1.90;;;12.80;90.30;;;;;;5074551;28;20447;-70
2022/02/14 09:27:13;;;;;;;9.40;1.60;;;12.80;90.40;;;;;;5074800;28;20443;-71
2022/02/14 09:29:39;;;;;;;9.47;1.50;;;12.80;90.90;;;;;;5075956;28;20974;-70
2022/02/14 09:32:07;;;;;;;14.00;2.23;;;12.80;91.20;;;;;;5074829;28;20517;-71
2022/02/14 09:34:35;;;;;;;5.97;1.30;;;12.80;91.70;;;;;;5074364;28;20456;-70
2022/02/14 09:37:02;;;;;;;4.67;1.30;;;12.90;92.10;;;;;;5074216;28;20452;-71
2022/02/14 09:39:31;;;;;;;2.20;1.20;;;12.80;92.60;;;;;;5074261;28;20464;-71
2022/02/14 09:41:59;;;;;;;4.43;1.67;;;12.60;93.00;;;;;;5073936;28;20455;-70
2022/02/14 09:44:27;;;;;;;2.50;1.37;;;12.50;93.60;;;;;;5074194;28;20445;-70
2022/02/14 09:46:54;;;;;;;1.87;1.20;;;12.40;94.20;;;;;;5074046;28;20464;-70
2022/02/14 09:49:21;;;;;;;5.10;1.50;;;12.30;95.00;;;;;;5074096;28;20449;-70
2022/02/14 09:51:50;;;;;;;1.37;1.20;;;12.10;95.60;;;;;;5073925;28;20436;-71
2022/02/14 09:54:17;;;;;;;1.20;1.10;;;12.20;96.20;;;;;;5073661;28;20511;-70
2022/02/14 09:56:43;;;;;;;1.30;1.13;;;12.20;96.20;;;;;;5074073;28;20464;-70
2022/02/14 09:59:12;;;;;;;1.87;1.20;;;12.20;95.80;;;;;;5074097;28;20452;-70
2022/02/14 10:01:39;;;;;;;2.50;1.03;;;12.40;95.90;;;;;;5074053;28;20449;-71
2022/02/14 10:04:06;;;;;;;0.83;0.80;;;12.50;95.00;;;;;;5074712;28;20449;-71
2022/02/14 10:06:35;;;;;;;3.30;1.07;;;12.50;93.50;;;;;;5073895;28;20504;-70
2022/02/14 10:09:11;;;;;;;2.77;0.90;;;12.50;93.30;;;;;;5073619;28;20896;-71
2022/02/14 10:11:42;;;;;;;1.53;1.00;;;12.40;92.70;;;;;;5073823;28;20432;-70
2022/02/14 10:14:16;;;;;;;2.30;1.07;;;12.30;93.00;;;;;;5073567;28;20464;-70
2022/02/14 10:17:04;;;;;;;5.20;1.40;;;12.30;93.10;;;;;;5073596;28;20994;-70
2022/02/14 10:19:32;;;;;;;6.87;0.93;;;12.30;93.10;;;;;;5073634;28;20437;-70
2022/02/14 10:21:59;;;;;;;1.17;1.07;;;12.30;92.90;;;;;;5073548;28;20448;-70
2022/02/14 10:24:27;;;;;;;6.20;1.03;;;12.40;91.90;;;;;;5073577;28;20436;-70
2022/02/14 10:26:55;;;;;;;7.20;1.33;;;12.50;91.90;;;;;;5073169;28;20839;-70
2022/02/14 10:29:24;;;;;;;1.97;0.83;;;12.50;90.00;;;;;;5073492;28;20449;-70
2022/02/14 10:31:54;;;;;;;8.53;1.10;;;12.50;90.20;;;;;;5073140;28;20947;-70
2022/02/14 10:34:22;;;;;;;7.20;1.30;;;12.40;90.00;;;;;;5073366;28;20488;-70
2022/02/14 10:36:51;;;;;;;12.67;1.53;;;12.60;90.10;;;;;;5073372;28;20472;-70
2022/02/14 10:39:20;;;;;;;6.13;1.17;;;12.70;87.90;;;;;;5073109;28;20811;-70
2022/02/14 10:41:50;;;;;;;5.70;0.90;;;12.70;88.00;;;;;;5073354;28;20444;-70
2022/02/14 10:45:07;;;;;;;4.80;1.50;;;12.50;86.00;;;;;;5073695;28;20785;-70
2022/02/14 10:47:11;;;;;;;2.60;0.80;;;12.30;87.80;;;;;;5072936;28;20532;-70
2022/02/14 10:49:38;;;;;;;10.83;1.00;;;12.10;88.80;;;;;;5074494;28;20451;-70
2022/02/14 10:52:07;;;;;;;4.63;0.93;;;12.00;89.40;;;;;;5077507;28;20444;-70
2022/02/14 10:54:42;;;;;;;2.40;1.20;;;11.90;90.10;;;;;;5077283;28;20478;-70
2022/02/14 10:57:25;;;;;;;4.10;0.80;;;11.80;90.20;;;;;;5077033;28;20462;-70
2022/02/14 10:59:59;;;;;;;4.00;0.80;;;11.80;90.20;;;;;;5077316;28;20463;-70
2022/02/14 11:02:27;;;;;;;2.40;0.77;;;11.80;89.20;;;;;;5077173;28;20927;-70
2022/02/14 11:04:54;;;;;;;1.13;0.80;;;11.80;89.60;;;;;;5077168;28;20472;-70
2022/02/14 11:07:22;;;;;;;1.20;0.90;;;11.70;89.60;;;;;;5076931;28;20449;-70
2022/02/14 11:09:50;;;;;;;3.33;0.90;;;11.70;90.10;;;;;;5076774;28;20448;-70
2022/02/14 11:12:20;;;;;;;4.47;1.03;;;11.70;89.80;;;;;;5077044;28;20448;-70
2022/02/14 11:14:54;;;;;;;5.30;1.37;;;11.80;90.10;;;;;;5076869;28;20447;-70
2022/02/14 11:17:26;;;;;;;4.73;1.00;;;12.00;89.50;;;;;;5076660;28;20460;-70
2022/02/14 11:19:55;;;;;;;6.03;1.27;;;12.20;87.60;;;;;;5076970;28;20421;-70
2022/02/14 11:22:23;;;;;;;13.93;1.67;;;12.30;87.80;;;;;;5076804;28;20494;-70
2022/02/14 11:24:58;;;;;;;2.90;1.10;;;12.40;85.10;;;;;;5076878;28;20440;-70
2022/02/14 11:27:31;;;;;;;9.33;1.50;;;12.40;85.30;;;;;;5076825;28;20467;-71
2022/02/14 11:30:02;;;;;;;5.77;1.20;;;12.40;85.20;;;;;;5076686;28;20425;-70
2022/02/14 11:32:32;;;;;;;5.93;1.17;;;12.40;84.00;;;;;;5076455;28;20528;-70
2022/02/14 11:35:01;;;;;;;9.13;1.20;;;12.40;83.30;;;;;;5076534;28;20835;-70
2022/02/14 11:37:49;;;;;;;5.13;0.90;;;12.30;82.90;;;;;;5076559;28;20440;-70
2022/02/14 11:40:39;;;;;;;7.03;1.17;;;12.40;82.40;;;;;;5076191;28;20432;-70
2022/02/14 11:43:22;;;;;;;3.67;0.93;;;12.30;81.30;;;;;;5076451;28;20483;-70
2022/02/14 11:46:18;;;;;;;6.50;1.00;;;12.40;82.20;;;;;;5076914;28;20464;-70
2022/02/14 11:48:50;;;;;;;6.03;1.00;;;12.50;81.70;;;;;;5076333;28;20429;-70
2022/02/14 11:51:17;;;;;;;3.73;0.90;;;12.80;81.40;;;;;;5076024;28;20472;-70
2022/02/14 11:53:47;;;;;;;3.37;1.10;;;13.20;80.10;;;;;;5076024;28;20483;-70
2022/02/14 11:56:28;;;;;;;2.40;0.60;;;13.50;77.60;;;;;;5075745;28;20506;-70
2022/02/14 11:59:02;;;;;;;5.90;0.90;;;13.80;75.20;;;;;;5075989;28;20441;-70
2022/02/14 12:01:29;;;;;;;6.13;1.03;;;13.70;73.60;;;;;;5075903;28;20432;-70
2022/02/14 12:04:41;;;;;;;6.47;1.10;;;13.00;74.70;;;;;;5076007;28;20441;-70
2022/02/14 12:07:37;;;;;;;6.77;1.27;;;12.60;78.00;;;;;;5075648;28;20461;-70
2022/02/14 12:10:24;;;;;;;3.17;1.10;;;12.30;79.10;;;;;;5076046;28;20494;-70
2022/02/14 12:13:13;;;;;;;5.10;1.00;;;12.10;81.60;;;;;;5075908;28;20429;-70
2022/02/14 12:21:24;;;;;;;3.83;0.93;;;12.10;82.20;;;;;;5075791;28;20408;-70
2022/02/14 12:23:54;;;;;;;4.20;1.40;;;12.50;82.30;;;;;;5076167;28;20449;-70
2022/02/14 12:26:25;;;;;;;4.50;1.03;;;12.60;78.70;;;;;;5075623;28;20469;-70
2022/02/14 12:29:32;;;;;;;3.70;1.10;;;12.70;79.10;;;;;;5075817;28;20452;-70
2022/02/14 12:31:45;;;;;;;3.30;0.87;;;12.70;80.40;;;;;;5075157;28;20437;-70
2022/02/14 12:34:12;;;;;;;5.73;1.50;;;12.60;79.40;;;;;;5075355;28;20488;-70
2022/02/14 12:36:51;;;;;;;3.53;1.20;;;12.60;80.30;;;;;;5075445;28;20473;-70
2022/02/14 12:39:37;;;;;;;7.30;1.37;;;12.70;80.10;;;;;;5075489;28;20437;-71
2022/02/14 12:42:11;;;;;;;8.33;1.10;;;13.00;77.70;;;;;;5075450;28;20432;-70
2022/02/14 12:44:38;;;;;;;1.73;1.20;;;13.10;76.30;;;;;;5075242;28;20460;-70
2022/02/14 12:47:05;;;;;;;3.03;1.30;;;13.10;77.30;;;;;;5075355;28;20473;-70
2022/02/14 12:49:32;;;;;;;3.47;1.20;;;13.00;76.50;;;;;;5075215;28;20452;-70
2022/02/14 12:52:15;;;;;;;3.13;1.00;;;13.10;76.80;;;;;;5074874;28;20456;-70
2022/02/14 12:54:51;;;;;;;5.70;1.00;;;13.00;76.00;;;;;;5075036;28;20468;-70
2022/02/14 12:57:37;;;;;;;14.00;1.20;;;13.00;77.00;;;;;;5075080;28;20775;-70
2022/02/14 13:00:18;;;;;;;4.57;1.40;;;13.10;77.10;;;;;;5075142;28;20919;-70